AirNav   Bose Proflight aviation headeet
 
 827 users online  

KNRQ Spencer Naval Outlying Field
Pace, Florida, USA

GOING TO PACE?


FAA INFORMATION EFFECTIVE 03 JANUARY 2019

Location

FAA Identifier: NRQ
Lat/Long: 30-37-00.0000N / 087-08-00.0000W
30-37.000000N / 087-08.000000W
30.6166667 / -87.1333333
(estimated)
Elevation: 151 ft. / 46 m (estimated)
Variation: 00W (1995)
From city: 2 miles NE of PACE, FL
Time zone: UTC -6 (UTC -5 during Daylight Saving Time)
Zip code: 32571

Airport Operations

Airport use: Private use. Permission required prior to landing
Activation date: 08/2000
Control tower: no
ARTCC: JACKSONVILLE CENTER
FSS: GAINESVILLE FLIGHT SERVICE STATION
Attendance: MON-FRI 1415-0015Z++, ALL SAT-SUN CLSD, ALL HOLS CLSD
Segmented circle: no

Airport Communications

CTAF: 358.8
WX ASOS at NDZ (8 nm NE): PHONE 850-623-7210
WX ASOS at NSE (8 nm NE): PHONE 850-623-7241
WX ASOS at PNS (9 nm S): PHONE 850-436-4799

Nearby radio navigation aids

VOR radial/distance  VOR name  Freq  Var
NUNr049/(13.6)SAUFLEY VOR108.8001E
CEWr239/26.6CRESTVIEW VORTAC115.9003E

 
NDB name  Hdg/Dist  Freq  Var  ID
PICKENS014/11.032602WPKZ .--. -.- --..

Airport Services

Runway Information

Runway 4L/22R

Dimensions: 1800 x 150 ft. / 549 x 46 m
Surface: asphalt
Weight bearing capacity: 
PCN 9 /F/B/W/U
RUNWAY 4L  RUNWAY 22R
Traffic pattern: leftleft

Runway 4R/22L

Dimensions: 1800 x 150 ft. / 549 x 46 m
Surface: asphalt
Weight bearing capacity: 
PCN 9 /F/B/W/U
RUNWAY 4R  RUNWAY 22L
Traffic pattern: leftleft

Runway 9L/27R

Dimensions: 1800 x 150 ft. / 549 x 46 m
Surface: asphalt
Weight bearing capacity: 
PCN 9 /F/B/W/U
RUNWAY 9L  RUNWAY 27R
Traffic pattern: leftleft

Runway 9R/27L

Dimensions: 1800 x 150 ft. / 549 x 46 m
Surface: asphalt
RUNWAY 9R  RUNWAY 27L
Traffic pattern: leftleft

Runway 13L/31R

Dimensions: 1800 x 150 ft. / 549 x 46 m
Surface: asphalt
Weight bearing capacity: 
PCN 9 /F/B/W/U
RUNWAY 13L  RUNWAY 31R
Traffic pattern: leftleft

Runway 13R/31L

Dimensions: 1800 x 150 ft. / 549 x 46 m
Surface: asphalt
Weight bearing capacity: 
PCN 9 /F/B/W/U
RUNWAY 13R  RUNWAY 31L
Traffic pattern: leftleft

Runway 18L/36R

Dimensions: 1800 x 150 ft. / 549 x 46 m
Surface: asphalt
Weight bearing capacity: 
PCN 9 /F/B/W/U
RUNWAY 18L  RUNWAY 36R
Traffic pattern: leftleft

Runway 18R/36L

Dimensions: 1800 x 150 ft. / 549 x 46 m
Surface: asphalt
Weight bearing capacity: 
PCN 9 /F/B/W/U
RUNWAY 18R  RUNWAY 36L
Traffic pattern: leftleft

Airport Ownership and Management from official FAA records

Ownership: U.S. Navy
Owner: US NAVY
OCEANOGRAPHIC OFC - CODE 3142
WASHINGTON, DC 20373
Manager: US NAVY
OPERATIONS DUTY OFFICER, NAVAL AIR STATION WHITING FIELD
MILTON, FL 32570
Phone DSN-868-7475
C850-623-7475.

Additional Remarks

TRAWING 5 ACFT ONLY. PPR REQUIRED FOR ALL OTR ACFT. CLSD FLD OPR PROHIBITED WITH THE EXCEPTION OF LAS.

Instrument Procedures

There are no published instrument procedures at KNRQ.

Some nearby airports with instrument procedures:

2R4 - Peter Prince Field Airport (7 nm E)
KNDZ - Whiting Field Naval Air Station South (8 nm NE)
KNSE - Whiting Field Naval Air Station North (8 nm NE)
KPNS - Pensacola International Airport (9 nm S)
KNPA - Pensacola Naval Air Station/Forrest Sherman Field (18 nm SW)
 
Loc | Ops | Rwys | IFR | FBO | Links
Com | Nav | Svcs | Stats | Notes

Continental Motors
AirBoss

 
Area around KNRQ (Spencer Naval Outlying Field)
 
Road maps at: MapQuest Bing Google
 
Aerial photo
No photo
 
Sectional chart

 
Airport distance calculator
Flying to Spencer Naval Outlying Field? Find the distance to fly.

From to KNRQ

Sunrise and sunset
Times for 18-Jan-2019
 Local
(UTC-6)
 Zulu
(UTC)
Morning civil twilight06:2112:21
Sunrise06:4712:47
Sunset17:1123:11
Evening civil twilight17:3723:37

Current date and time
Zulu (UTC)  19-Jan-2019 03:31:44
Local (UTC-6)  18-Jan-2019 21:31:44
 
METAR
2R4 
7nm E 
SuperAWOS
190255Z AUTO 00000KT 13/12 A3001
KNDZ 
8nm NE 
190317Z 17003KT 1SM BR FEW004 BKN250 13/13 A3001 RMK AO2 T01280128 $
KPNS 
8nm S 
190253Z 19005KT 8SM CLR 16/14 A3002 RMK AO2 SLP166 T01560144 58008
KNSE 
8nm NE 
190312Z 18003KT 4SM BR FEW003 BKN250 13/13 A3001 RMK AO2 T01280128 $
KNPA 
19nm SW 
190256Z 18007KT 9SM SCT045 BKN250 16/16 A3001 RMK AO2 SLP164 T01610156 58011
TAF
KPNS 
8nm S 
181727Z 1818/1918 28006KT P6SM BKN012 FM182000 19007KT P6SM SCT020 BKN250 FM190600 18007KT 6SM BR OVC007 FM191200 17012KT 5SM BR VCSH OVC015
KNSE 
8nm NE 
1823/1923 18005KT 9999 SCT015 BKN030 BKN150 OVC250 QNH2994INS TEMPO 1823/1901 4800 BR BKN003 OVC015 FM190200 17004KT 3200 BR BKN003 OVC007 QNH2992INS TEMPO 1902/1905 0800 FG VV000 FM190500 19005KT 1600 BR BKN002 OVC005 QNH2990INS FM191400 20008G16KT 9000 -RA BR BKN005 OVC015 QNH2985INS TEMPO 1914/1918 3200 SHRA BR OVC005 FM191900 24014G24KT 4800 +SHRA BR VCTS SCT005 BKN010 OVC020CB QNH2970INS TEMPO 1919/1923 VRB25G45KT 0800 +TSRA FG BKN005 OVC010CB AUTOMATED SENSOR METWATCH 1905 TIL 2212 T15/191
KNPA 
19nm SW 
1823/1923 22006KT 9999 FEW020 SCT180 BKN250 QNH3001INS FM190600 18010KT 9999 VCSH SCT008 BKN020 OVC045 QNH3000INS TEMPO 1909/1913 BKN008 OVC015 FM191500 19014G21KT 9000 BR VCSH SCT007 BKN015 OVC040 QNH2984INS TEMPO 1915/1921 6000 SHRA BKN007 OVC015 FM192100 19015G24KT 8000 BR VCTS BKN015 BKN030CB OVC060 QNH2970INS TEMPO 1921/1923 VRB25G35KT 1200 +TSRA SCT007 BKN025CB BKN080 OVC120 AUTOMATED SENSOR METWATCH 1903 TIL 1912 T16/1911Z T20/1919Z FN20034
NOTAMs
Click for the latest NOTAMs
NOTAMs are issued by the DoD/FAA and will open in a separate window not controlled by AirNav.

 

 
 

Would you like to see your business listed on this page?

 If your business provides an interesting product or service to pilots, flight crews, aircraft, or users of the Spencer Naval Outlying Field, you should consider listing it here.  To start the listing process, click on the button below
 
Add a business
 

Other Pages about Spencer Naval Outlying Field

Update a link
 
Copyright © AirNav, LLC. All rights reserved. Privacy Policy  Contact